Time;durP1;ratioP1;P1;durP2;ratioP2;P2;SDS_P1;SDS_P2;PMS_P1;PMS_P2;Temp;Humidity;BMP_temperature;BMP_pressure;BME280_temperature;BME280_humidity;BME280_pressure;Samples;Min_cycle;Max_cycle;Signal;HPM_P1;HPM_P2
2022/01/21 00:01:43;;;;;;;2.33;0.30;;;25.10;98.80;;;;;;5053334;28;20047;-75
2022/01/21 00:04:11;;;;;;;4.13;0.80;;;25.30;98.80;;;;;;5058529;28;20115;-75
2022/01/21 00:06:39;;;;;;;2.38;0.40;;;25.50;97.90;;;;;;5054037;28;20039;-75
2022/01/21 00:09:07;;;;;;;3.75;0.40;;;25.90;97.80;;;;;;5056014;28;20028;-75
2022/01/21 00:11:36;;;;;;;2.88;0.57;;;26.70;96.60;;;;;;5053326;28;20032;-75
2022/01/21 00:14:04;;;;;;;3.55;0.82;;;27.20;95.90;;;;;;5054171;28;20035;-75
2022/01/21 00:16:31;;;;;;;1.55;0.65;;;27.60;95.10;;;;;;5055543;28;20027;-74
2022/01/21 00:19:09;;;;;;;3.17;0.60;;;27.80;94.40;;;;;;5054023;28;20031;-75
2022/01/21 00:30:16;;;;;;;4.20;0.38;;;27.10;93.80;;;;;;5054975;28;20355;-75
2022/01/21 00:32:45;;;;;;;2.40;0.70;;;27.40;93.80;;;;;;5062889;28;20047;-75
2022/01/21 00:35:14;;;;;;;1.15;0.35;;;27.60;93.30;;;;;;5064564;28;21368;-76
2022/01/21 00:37:42;;;;;;;0.60;0.20;;;27.90;93.20;;;;;;5059556;28;20020;-75
2022/01/21 00:40:14;;;;;;;1.17;0.30;;;28.10;93.20;;;;;;5057301;28;20125;-75
2022/01/21 00:45:15;;;;;;;1.17;0.28;;;28.10;92.90;;;;;;5059572;28;20032;-78
2022/01/21 00:47:44;;;;;;;1.95;0.47;;;28.00;92.90;;;;;;5055633;28;20104;-77
2022/01/21 00:50:13;;;;;;;1.67;0.32;;;28.10;93.10;;;;;;5059601;28;20044;-77
2022/01/21 00:52:41;;;;;;;1.27;0.45;;;28.50;92.30;;;;;;5062572;28;20052;-74
2022/01/21 00:55:10;;;;;;;1.38;0.20;;;28.80;93.00;;;;;;5061497;28;20028;-75
2022/01/21 00:57:37;;;;;;;1.48;0.43;;;29.10;92.20;;;;;;5053116;28;20037;-75
2022/01/21 01:00:08;;;;;;;1.63;0.25;;;29.20;91.80;;;;;;5061643;28;20060;-78
2022/01/21 01:02:36;;;;;;;2.55;0.45;;;29.20;92.30;;;;;;5065104;28;20498;-77
2022/01/21 01:05:05;;;;;;;5.78;0.60;;;29.30;92.70;;;;;;5058049;28;20390;-77
2022/01/21 01:07:33;;;;;;;5.82;0.63;;;28.70;93.70;;;;;;5057708;28;20084;-79
2022/01/21 01:10:02;;;;;;;3.35;0.80;;;28.40;93.60;;;;;;5053581;28;20406;-76
2022/01/21 01:20:42;;;;;;;1.75;0.65;;;28.80;92.70;;;;;;5061805;28;20098;-76
2022/01/21 01:23:39;;;;;;;3.08;0.32;;;28.60;92.90;;;;;;5055633;28;20036;-76
2022/01/21 01:28:52;;;;;;;4.55;0.40;;;28.80;93.10;;;;;;5054044;28;20036;-77
2022/01/21 01:31:19;;;;;;;1.95;0.45;;;29.20;94.60;;;;;;5054934;28;20363;-78
2022/01/21 01:33:47;;;;;;;2.95;0.60;;;29.60;93.10;;;;;;5058479;28;20029;-76
2022/01/21 01:36:14;;;;;;;2.95;0.50;;;29.50;91.80;;;;;;5053878;28;20033;-78
2022/01/21 01:41:56;;;;;;;3.70;0.63;;;29.30;91.90;;;;;;5046839;28;20056;-77
2022/01/21 01:49:53;;;;;;;4.07;0.50;;;29.50;91.40;;;;;;5058466;28;20067;-75
2022/01/21 01:52:21;;;;;;;3.15;0.30;;;29.90;90.40;;;;;;5057134;28;20033;-75
2022/01/21 01:54:52;;;;;;;1.48;0.43;;;29.90;89.50;;;;;;5053503;28;20036;-80
2022/01/21 01:57:20;;;;;;;3.55;0.50;;;29.80;90.00;;;;;;5062002;28;20017;-77
2022/01/21 01:59:47;;;;;;;1.50;0.35;;;29.50;90.00;;;;;;5068055;28;20387;-77
2022/01/21 02:02:17;;;;;;;4.20;0.80;;;29.30;90.20;;;;;;5067956;28;20032;-76
2022/01/21 02:04:46;;;;;;;1.67;0.75;;;29.10;90.50;;;;;;5070351;28;20040;-76
2022/01/21 02:07:14;;;;;;;2.30;0.40;;;28.80;90.30;;;;;;5071323;28;20052;-79
2022/01/21 02:09:42;;;;;;;4.78;0.38;;;28.70;90.80;;;;;;5058547;28;20027;-75
2022/01/21 02:12:10;;;;;;;3.63;0.38;;;28.50;91.00;;;;;;5058068;28;20044;-74
2022/01/21 02:14:47;;;;;;;2.10;0.40;;;28.60;92.20;;;;;;5067353;28;20500;-76
2022/01/21 02:21:28;;;;;;;1.77;0.30;;;28.60;91.30;;;;;;5060273;28;20111;-75
2022/01/21 02:22:50;;;;;;;3.00;0.98;;;28.20;91.80;;;;;;5057686;28;20113;-76
2022/01/21 02:25:21;;;;;;;5.95;0.75;;;28.20;92.20;;;;;;5061846;28;20036;-78
2022/01/21 02:27:52;;;;;;;3.53;0.70;;;27.80;92.30;;;;;;5054072;28;20032;-76
2022/01/21 02:30:22;;;;;;;3.35;0.70;;;27.30;92.40;;;;;;5058612;28;20025;-78
2022/01/21 02:32:53;;;;;;;2.00;0.40;;;27.10;92.60;;;;;;5050344;28;20032;-76
2022/01/21 02:35:22;;;;;;;2.50;0.50;;;26.80;92.90;;;;;;5059965;28;20449;-76
2022/01/21 02:37:51;;;;;;;3.63;0.75;;;26.60;93.40;;;;;;5056187;28;20384;-77
2022/01/21 02:40:19;;;;;;;2.28;0.80;;;26.60;93.60;;;;;;5070861;28;20063;-77
2022/01/21 02:42:46;;;;;;;4.05;1.15;;;26.50;93.50;;;;;;5066268;28;20068;-77
2022/01/21 02:45:15;;;;;;;4.22;0.40;;;26.50;94.30;;;;;;5064019;28;20103;-76
2022/01/21 02:47:45;;;;;;;2.78;0.50;;;26.50;94.50;;;;;;5066608;28;20123;-78
2022/01/21 02:50:13;;;;;;;2.85;0.73;;;26.50;94.20;;;;;;5064342;28;20044;-77
2022/01/21 02:52:54;;;;;;;6.93;1.35;;;26.50;94.20;;;;;;5056463;28;20028;-81
2022/01/21 02:55:22;;;;;;;7.78;1.55;;;26.40;94.40;;;;;;5068895;28;20363;-78
2022/01/21 02:57:50;;;;;;;4.18;0.47;;;26.30;94.50;;;;;;5070785;28;20465;-76
2022/01/21 03:00:18;;;;;;;4.93;0.50;;;26.20;94.50;;;;;;5068189;28;20093;-79
2022/01/21 03:02:45;;;;;;;2.08;0.40;;;26.20;94.70;;;;;;5058147;28;20071;-77
2022/01/21 03:05:15;;;;;;;4.72;0.68;;;26.30;94.50;;;;;;5063963;28;20087;-77
2022/01/21 03:07:43;;;;;;;5.07;0.95;;;26.20;94.50;;;;;;5050448;28;20518;-78
2022/01/21 03:10:12;;;;;;;3.38;0.70;;;26.20;94.50;;;;;;5054396;28;20443;-77
2022/01/21 03:12:40;;;;;;;2.38;0.50;;;26.10;95.00;;;;;;5064382;28;20033;-75
2022/01/21 03:15:08;;;;;;;5.07;1.08;;;25.70;96.20;;;;;;5058620;28;20027;-77
2022/01/21 03:17:36;;;;;;;2.03;0.70;;;25.40;97.20;;;;;;5057123;28;20024;-76
2022/01/21 03:20:05;;;;;;;3.47;0.55;;;25.30;97.90;;;;;;5069312;28;20043;-76
2022/01/21 03:22:32;;;;;;;5.35;0.63;;;25.10;98.60;;;;;;5053141;28;20044;-79
2022/01/21 03:25:00;;;;;;;4.20;0.60;;;24.80;99.40;;;;;;5063047;28;20104;-75
2022/01/21 03:27:27;;;;;;;3.88;0.70;;;24.70;99.70;;;;;;5059887;28;20035;-76
2022/01/21 03:29:54;;;;;;;2.85;0.57;;;24.60;99.90;;;;;;5063746;28;20016;-78
2022/01/21 03:32:23;;;;;;;2.95;0.63;;;24.60;99.80;;;;;;5064148;28;20028;-76
2022/01/21 03:34:50;;;;;;;2.70;0.85;;;24.60;99.90;;;;;;5064735;28;20063;-78
2022/01/21 03:37:18;;;;;;;3.13;0.60;;;24.40;99.90;;;;;;5052013;28;20370;-75
2022/01/21 03:39:45;;;;;;;6.15;1.05;;;24.30;99.90;;;;;;5057024;28;20082;-79
2022/01/21 03:42:13;;;;;;;2.72;0.45;;;24.30;99.90;;;;;;5053403;28;20505;-74
2022/01/21 03:44:40;;;;;;;5.20;0.75;;;24.30;99.90;;;;;;5051824;28;20036;-77
2022/01/21 03:47:08;;;;;;;4.90;0.70;;;24.20;99.90;;;;;;5054184;28;20490;-82
2022/01/21 03:49:41;;;;;;;2.95;0.82;;;24.10;99.90;;;;;;5060977;28;20051;-79
2022/01/21 03:52:09;;;;;;;5.22;1.08;;;24.20;99.90;;;;;;5062390;28;20344;-79
2022/01/21 03:54:36;;;;;;;2.30;1.00;;;24.30;99.90;;;;;;5060303;28;20199;-76
2022/01/21 03:57:04;;;;;;;5.38;1.25;;;24.40;99.90;;;;;;5059702;28;20740;-79
2022/01/21 03:59:32;;;;;;;4.07;0.57;;;24.50;99.90;;;;;;5066081;28;20032;-76
2022/01/21 04:02:00;;;;;;;3.60;0.95;;;24.60;99.90;;;;;;5059643;28;20036;-78
2022/01/21 04:04:29;;;;;;;7.00;0.95;;;24.60;99.90;;;;;;5064920;28;20029;-75
2022/01/21 04:06:56;;;;;;;9.88;1.05;;;24.60;99.80;;;;;;5063408;28;20059;-77
2022/01/21 04:09:24;;;;;;;5.88;0.73;;;24.50;99.90;;;;;;5066558;28;20123;-76
2022/01/21 04:11:52;;;;;;;4.30;1.13;;;24.70;99.90;;;;;;5063045;28;20032;-75
2022/01/21 04:14:19;;;;;;;4.20;0.43;;;24.80;99.90;;;;;;5058276;28;20056;-75
2022/01/21 04:16:46;;;;;;;6.90;0.77;;;25.00;99.50;;;;;;5062208;28;20210;-76
2022/01/21 04:19:14;;;;;;;3.47;0.40;;;25.20;98.80;;;;;;5058192;28;20056;-76
2022/01/21 04:21:41;;;;;;;4.05;1.58;;;25.30;98.30;;;;;;5065207;28;20040;-76
2022/01/21 04:24:09;;;;;;;0.93;0.75;;;25.20;98.30;;;;;;5065363;28;20083;-75
2022/01/21 04:26:36;;;;;;;6.25;1.25;;;25.00;98.00;;;;;;5054896;28;20454;-77
2022/01/21 04:29:03;;;;;;;5.22;0.80;;;24.60;98.40;;;;;;5065295;28;20067;-74
2022/01/21 04:31:31;;;;;;;1.80;0.60;;;24.30;99.20;;;;;;5059012;28;20044;-76
2022/01/21 04:33:58;;;;;;;3.53;0.88;;;24.10;99.60;;;;;;5063600;28;20110;-76
2022/01/21 04:36:25;;;;;;;7.18;0.60;;;24.00;99.90;;;;;;5053978;28;20372;-78
2022/01/21 04:38:55;;;;;;;2.03;0.50;;;23.90;99.90;;;;;;5051965;28;20434;-76
2022/01/21 04:41:42;;;;;;;3.05;0.68;;;23.80;99.90;;;;;;5063053;28;20461;-78
2022/01/21 04:49:40;;;;;;;2.80;0.70;;;23.90;99.90;;;;;;5065477;28;20082;-77
2022/01/21 04:52:08;;;;;;;3.72;0.60;;;24.10;99.90;;;;;;5063468;28;20063;-82
2022/01/21 04:54:37;;;;;;;5.65;0.70;;;24.20;99.90;;;;;;5062318;28;20128;-78
2022/01/21 04:57:06;;;;;;;3.33;0.50;;;24.30;99.90;;;;;;5060384;28;20032;-77
2022/01/21 04:59:34;;;;;;;6.47;0.70;;;24.50;99.90;;;;;;5064687;28;20036;-79
2022/01/21 05:02:02;;;;;;;2.50;0.80;;;24.50;99.90;;;;;;5057683;28;20040;-77
2022/01/21 05:04:29;;;;;;;3.50;1.08;;;24.40;99.90;;;;;;5064440;28;20082;-76
2022/01/21 05:06:57;;;;;;;1.75;0.40;;;24.20;99.90;;;;;;5070158;28;20036;-77
2022/01/21 05:09:31;;;;;;;2.92;0.70;;;24.10;99.90;;;;;;5071143;28;20036;-77
2022/01/21 05:12:01;;;;;;;1.60;0.47;;;24.10;99.90;;;;;;5070946;28;20056;-77
2022/01/21 05:14:46;;;;;;;4.18;0.47;;;24.20;99.90;;;;;;5069719;28;20063;-76
2022/01/21 05:17:15;;;;;;;6.20;0.70;;;24.30;99.90;;;;;;5063456;28;20521;-76
2022/01/21 05:19:43;;;;;;;3.08;0.47;;;24.40;99.90;;;;;;5070195;28;20082;-75
2022/01/21 05:22:10;;;;;;;3.15;0.60;;;24.40;99.90;;;;;;5064402;28;20037;-76
2022/01/21 05:24:38;;;;;;;3.97;0.70;;;24.40;99.90;;;;;;5063094;28;20013;-75
2022/01/21 05:27:06;;;;;;;7.13;0.65;;;24.10;99.90;;;;;;5069638;28;20043;-76
2022/01/21 05:29:35;;;;;;;2.83;0.70;;;24.10;99.90;;;;;;5069597;28;20540;-79
2022/01/21 05:32:04;;;;;;;5.78;0.47;;;24.20;99.90;;;;;;5069115;28;20120;-77
2022/01/21 05:34:33;;;;;;;1.75;0.40;;;24.10;99.90;;;;;;5067124;28;20121;-78
2022/01/21 05:37:00;;;;;;;4.68;0.88;;;24.20;99.90;;;;;;5066259;28;20024;-78
2022/01/21 05:39:28;;;;;;;4.80;0.70;;;24.40;99.90;;;;;;5071630;28;20127;-79
2022/01/21 05:41:55;;;;;;;5.50;0.57;;;24.40;99.90;;;;;;5068016;28;20091;-78
2022/01/21 05:46:59;;;;;;;0.87;0.33;;;24.10;99.90;;;;;;5068624;28;20016;-76
2022/01/21 05:49:29;;;;;;;3.03;0.68;;;24.00;99.90;;;;;;5058241;28;20036;-77
2022/01/21 05:52:06;;;;;;;2.58;0.40;;;24.00;99.90;;;;;;5058955;28;20313;-78
2022/01/21 05:54:34;;;;;;;4.68;1.15;;;24.10;99.90;;;;;;5061105;28;20103;-75
2022/01/21 05:57:05;;;;;;;2.58;0.80;;;24.00;99.90;;;;;;5064414;28;20051;-76
2022/01/21 05:59:33;;;;;;;2.25;0.52;;;23.90;99.90;;;;;;5066932;28;20071;-74
2022/01/21 06:02:01;;;;;;;4.28;1.25;;;23.80;99.90;;;;;;5065033;28;20131;-76
2022/01/21 06:04:28;;;;;;;2.45;0.32;;;23.60;99.90;;;;;;5067842;28;20110;-76
2022/01/21 06:06:55;;;;;;;4.50;0.52;;;23.40;99.90;;;;;;5065545;28;20024;-76
2022/01/21 06:09:23;;;;;;;5.65;0.75;;;23.30;99.90;;;;;;5063735;28;20027;-75
2022/01/21 06:11:53;;;;;;;7.50;0.80;;;23.40;99.90;;;;;;5063578;28;20541;-74
2022/01/21 06:14:21;;;;;;;3.40;0.55;;;23.10;99.60;;;;;;5060795;28;20027;-75
2022/01/21 06:16:48;;;;;;;2.33;0.60;;;23.00;99.70;;;;;;5055929;28;20035;-76
2022/01/21 06:19:15;;;;;;;4.03;0.50;;;23.00;99.60;;;;;;5061327;28;20359;-75
2022/01/21 06:21:43;;;;;;;1.45;0.57;;;22.90;99.60;;;;;;5060217;28;20115;-76
2022/01/21 06:24:10;;;;;;;2.53;0.98;;;22.80;99.80;;;;;;5055583;28;20029;-75
2022/01/21 06:26:38;;;;;;;1.25;0.30;;;22.90;99.60;;;;;;5059598;28;20020;-75
2022/01/21 06:29:06;;;;;;;3.10;0.45;;;23.00;99.20;;;;;;5065683;28;20497;-76
2022/01/21 06:31:33;;;;;;;1.58;0.20;;;23.10;98.90;;;;;;5067377;28;20352;-75
2022/01/21 06:34:00;;;;;;;4.18;0.57;;;23.10;99.00;;;;;;5068520;28;20211;-75
2022/01/21 06:36:28;;;;;;;2.60;0.43;;;23.20;98.80;;;;;;5064958;28;20385;-75
2022/01/21 06:38:56;;;;;;;2.97;0.70;;;23.30;99.00;;;;;;5064211;28;20514;-76
2022/01/21 06:41:23;;;;;;;2.58;0.70;;;23.40;99.40;;;;;;5064525;28;20045;-77
2022/01/21 06:43:51;;;;;;;6.43;0.70;;;23.30;99.60;;;;;;5062668;28;20166;-75
2022/01/21 06:46:18;;;;;;;8.23;1.00;;;23.10;99.90;;;;;;5061561;28;20033;-75
2022/01/21 06:48:46;;;;;;;2.97;0.65;;;22.90;99.90;;;;;;5064328;28;20182;-76
2022/01/21 06:51:13;;;;;;;4.03;1.23;;;22.80;99.90;;;;;;5064459;28;20467;-75
2022/01/21 06:53:40;;;;;;;3.97;0.77;;;22.70;99.90;;;;;;5058496;28;20029;-75
2022/01/21 06:56:08;;;;;;;5.32;0.82;;;22.50;99.90;;;;;;5063693;28;20033;-75
2022/01/21 06:58:35;;;;;;;4.07;0.80;;;22.30;99.90;;;;;;5067423;28;20131;-75
2022/01/21 07:01:03;;;;;;;3.58;0.60;;;22.30;99.90;;;;;;5064432;28;20078;-75
2022/01/21 07:03:33;;;;;;;2.80;0.82;;;22.20;99.90;;;;;;5074281;28;20031;-79
2022/01/21 07:06:00;;;;;;;4.00;1.00;;;22.30;99.90;;;;;;5068775;28;20455;-75
2022/01/21 07:08:28;;;;;;;6.38;0.98;;;22.40;99.90;;;;;;5065473;28;20036;-76
2022/01/21 07:10:55;;;;;;;10.48;3.80;;;22.20;99.90;;;;;;5066079;28;20024;-74
2022/01/21 07:13:22;;;;;;;7.25;1.90;;;22.30;99.90;;;;;;5069028;28;20093;-75
2022/01/21 07:15:50;;;;;;;6.10;1.25;;;22.50;99.90;;;;;;5058916;28;20059;-74
2022/01/21 07:18:17;;;;;;;3.25;1.35;;;22.40;99.90;;;;;;5065033;28;20047;-76
2022/01/21 07:20:45;;;;;;;10.30;2.75;;;22.60;99.90;;;;;;5059489;28;20029;-75
2022/01/21 07:23:12;;;;;;;5.55;0.68;;;22.70;99.90;;;;;;5054255;28;20041;-75
2022/01/21 07:25:39;;;;;;;4.70;0.60;;;22.90;99.90;;;;;;5057676;28;20025;-76
2022/01/21 07:28:08;;;;;;;3.28;0.77;;;22.90;99.90;;;;;;5064187;28;20040;-76
2022/01/21 07:30:35;;;;;;;8.02;1.30;;;23.10;99.90;;;;;;5069322;28;20057;-77
2022/01/21 07:33:03;;;;;;;4.32;0.40;;;23.00;99.90;;;;;;5060153;28;20036;-76
2022/01/21 07:35:30;;;;;;;5.72;0.73;;;23.00;99.90;;;;;;5061220;28;20531;-78
2022/01/21 07:37:59;;;;;;;5.97;1.27;;;23.00;99.90;;;;;;5058579;28;20028;-76
2022/01/21 07:40:27;;;;;;;8.23;1.17;;;23.00;99.90;;;;;;5061228;28;20048;-76
2022/01/21 07:42:54;;;;;;;3.35;0.75;;;22.90;99.90;;;;;;5061403;28;20089;-77
2022/01/21 07:45:22;;;;;;;2.47;0.50;;;22.80;99.90;;;;;;5061313;28;20056;-77
2022/01/21 07:47:49;;;;;;;3.80;0.68;;;22.60;99.90;;;;;;5068346;28;20379;-74
2022/01/21 07:50:16;;;;;;;6.43;0.95;;;22.40;99.90;;;;;;5064920;28;20025;-75
2022/01/21 07:52:44;;;;;;;8.77;1.25;;;22.30;99.90;;;;;;5057946;28;20060;-75
2022/01/21 07:55:11;;;;;;;2.47;0.70;;;22.20;99.90;;;;;;5061034;28;20500;-75
2022/01/21 07:57:39;;;;;;;5.00;1.00;;;22.10;99.90;;;;;;5064965;28;20036;-75
2022/01/21 08:00:08;;;;;;;1.80;0.77;;;22.10;99.90;;;;;;5067067;28;20024;-75
2022/01/21 08:02:35;;;;;;;2.00;0.45;;;22.10;99.90;;;;;;5064504;28;20031;-75
2022/01/21 08:05:05;;;;;;;3.72;0.82;;;22.10;99.90;;;;;;5063663;28;20487;-74
2022/01/21 08:07:32;;;;;;;1.40;0.55;;;22.10;99.90;;;;;;5056258;28;20040;-76
2022/01/21 08:10:00;;;;;;;3.70;0.98;;;22.30;99.90;;;;;;5067518;28;20024;-76
2022/01/21 08:12:27;;;;;;;4.95;0.65;;;22.20;99.90;;;;;;5054458;28;20522;-76
2022/01/21 08:14:55;;;;;;;4.20;0.50;;;22.10;99.90;;;;;;5067178;28;20111;-75
2022/01/21 08:17:23;;;;;;;8.52;1.75;;;21.90;99.90;;;;;;5063641;28;20096;-76
2022/01/21 08:19:50;;;;;;;5.07;1.00;;;21.70;99.90;;;;;;5062750;28;20035;-76
2022/01/21 08:22:18;;;;;;;2.15;0.73;;;21.50;99.90;;;;;;5057757;28;20037;-76
2022/01/21 08:24:45;;;;;;;4.18;1.15;;;21.50;99.90;;;;;;5063920;28;20485;-76
2022/01/21 08:27:12;;;;;;;7.88;0.73;;;21.70;99.90;;;;;;5054663;28;20509;-80
2022/01/21 08:29:40;;;;;;;4.18;0.82;;;21.70;99.90;;;;;;5058471;28;20348;-75
2022/01/21 08:32:07;;;;;;;4.13;0.85;;;21.60;99.90;;;;;;5058505;28;20123;-75
2022/01/21 08:34:35;;;;;;;4.20;0.60;;;21.40;99.90;;;;;;5057083;28;20105;-75
2022/01/21 08:37:05;;;;;;;3.80;0.60;;;21.40;99.90;;;;;;5048813;28;20028;-75
2022/01/21 08:39:33;;;;;;;4.43;0.60;;;21.60;99.90;;;;;;5053722;28;20036;-75
2022/01/21 08:42:02;;;;;;;2.67;0.75;;;21.50;99.90;;;;;;5054842;28;20053;-76
2022/01/21 08:44:32;;;;;;;4.63;1.13;;;21.30;99.90;;;;;;5057809;28;20044;-76
2022/01/21 08:47:00;;;;;;;4.10;0.70;;;21.20;99.90;;;;;;5061371;28;20113;-76
2022/01/21 08:49:28;;;;;;;2.28;1.15;;;21.20;99.90;;;;;;5057274;28;20103;-75
2022/01/21 08:51:57;;;;;;;2.53;0.47;;;21.20;99.90;;;;;;5054340;28;20108;-75
2022/01/21 08:54:25;;;;;;;6.15;0.77;;;21.20;99.90;;;;;;5068162;28;20457;-75
2022/01/21 08:56:54;;;;;;;3.63;0.50;;;21.20;99.90;;;;;;5065773;28;20028;-76
2022/01/21 08:59:23;;;;;;;5.40;1.13;;;21.20;99.90;;;;;;5055676;28;20054;-77
2022/01/21 09:01:50;;;;;;;2.90;0.35;;;21.10;99.90;;;;;;5061059;28;20347;-76
2022/01/21 09:04:18;;;;;;;2.20;0.40;;;21.20;99.90;;;;;;5067660;28;20100;-77
2022/01/21 09:06:46;;;;;;;3.53;1.00;;;21.20;99.90;;;;;;5064421;28;20051;-75
2022/01/21 09:09:15;;;;;;;6.22;1.15;;;21.30;99.90;;;;;;5060920;28;20032;-75
2022/01/21 09:11:42;;;;;;;2.08;0.80;;;21.30;99.90;;;;;;5063293;28;20104;-74
2022/01/21 09:14:10;;;;;;;6.00;1.00;;;21.30;99.90;;;;;;5059188;28;20037;-75
2022/01/21 09:19:59;;;;;;;7.45;1.10;;;21.40;99.90;;;;;;5064440;28;20032;-76
2022/01/21 09:22:26;;;;;;;2.78;0.60;;;21.20;99.90;;;;;;5058351;28;20137;-75
2022/01/21 09:24:53;;;;;;;4.70;0.52;;;21.20;99.90;;;;;;5062925;28;20727;-74
2022/01/21 09:27:20;;;;;;;2.20;0.80;;;21.20;99.90;;;;;;5058718;28;20364;-75
2022/01/21 09:29:48;;;;;;;4.97;0.90;;;21.10;99.90;;;;;;5062277;28;20025;-74
2022/01/21 09:32:17;;;;;;;3.88;0.77;;;21.10;99.90;;;;;;5051269;28;20143;-74
2022/01/21 09:34:44;;;;;;;4.82;0.93;;;21.10;99.90;;;;;;5066461;28;20032;-76
2022/01/21 09:37:12;;;;;;;8.13;0.88;;;21.00;99.90;;;;;;5066322;28;20087;-78
2022/01/21 09:39:39;;;;;;;5.55;0.80;;;21.00;99.90;;;;;;5060448;28;20142;-76
2022/01/21 09:42:08;;;;;;;2.47;0.47;;;20.90;99.90;;;;;;5053091;28;20113;-74
2022/01/21 09:44:36;;;;;;;6.85;0.93;;;20.80;99.90;;;;;;5052382;28;20112;-75
2022/01/21 09:47:04;;;;;;;4.50;0.60;;;20.70;99.90;;;;;;5053836;28;20470;-75
2022/01/21 09:49:34;;;;;;;8.13;0.70;;;20.60;99.90;;;;;;5056814;28;20340;-75
2022/01/21 09:52:04;;;;;;;4.63;0.75;;;20.60;99.90;;;;;;5060498;28;20040;-74
2022/01/21 09:54:37;;;;;;;3.80;0.73;;;20.70;99.90;;;;;;5055809;28;20036;-75
2022/01/21 09:57:07;;;;;;;4.43;1.02;;;20.70;99.90;;;;;;5056151;28;20024;-74
2022/01/21 09:59:38;;;;;;;0.93;0.32;;;20.80;99.90;;;;;;5058146;28;20429;-74
2022/01/21 10:02:08;;;;;;;1.70;0.50;;;20.90;99.90;;;;;;5057423;28;20059;-74
2022/01/21 10:04:41;;;;;;;2.75;0.57;;;21.00;99.90;;;;;;5055854;28;20154;-74
2022/01/21 10:07:15;;;;;;;3.22;0.60;;;21.00;99.90;;;;;;5054773;28;20120;-76
2022/01/21 10:09:44;;;;;;;3.42;0.50;;;20.90;99.90;;;;;;5058262;28;20475;-74
2022/01/21 10:12:13;;;;;;;3.28;0.80;;;20.90;99.90;;;;;;5055964;28;20111;-76
2022/01/21 10:14:41;;;;;;;13.55;1.00;;;20.90;99.90;;;;;;5054930;28;20135;-74
2022/01/21 10:17:08;;;;;;;2.42;0.60;;;21.00;99.90;;;;;;5054308;28;20032;-75
2022/01/21 10:19:39;;;;;;;3.15;0.47;;;20.90;99.90;;;;;;5053797;28;20040;-74
2022/01/21 10:22:17;;;;;;;1.83;0.40;;;20.90;99.90;;;;;;5054771;28;20055;-75
2022/01/21 10:25:01;;;;;;;3.78;0.60;;;20.90;99.90;;;;;;5059210;28;20121;-77
2022/01/21 10:27:40;;;;;;;3.08;0.85;;;20.80;99.90;;;;;;5055914;28;20123;-75
2022/01/21 10:30:25;;;;;;;3.25;0.52;;;20.90;99.90;;;;;;5053346;28;20028;-75
2022/01/21 10:32:54;;;;;;;1.65;0.98;;;21.00;99.90;;;;;;5054725;28;21127;-76
2022/01/21 10:35:26;;;;;;;1.95;0.40;;;21.00;99.90;;;;;;5055238;28;20016;-76
2022/01/21 10:37:57;;;;;;;2.63;0.52;;;21.00;99.90;;;;;;5054261;28;20195;-75
2022/01/21 10:40:33;;;;;;;3.10;0.80;;;20.90;99.90;;;;;;5054486;28;20044;-76
2022/01/21 10:43:15;;;;;;;2.88;0.50;;;20.90;99.90;;;;;;5055154;28;20091;-74
2022/01/21 10:45:55;;;;;;;0.75;0.40;;;20.90;99.90;;;;;;5059219;28;20035;-76
2022/01/21 10:48:23;;;;;;;1.17;0.40;;;20.80;99.90;;;;;;5057152;28;20423;-77
2022/01/21 10:51:19;;;;;;;1.83;0.40;;;20.90;99.90;;;;;;5065076;28;20020;-76
2022/01/21 10:53:47;;;;;;;2.43;0.53;;;20.80;99.90;;;;;;5063651;28;20037;-76
2022/01/21 10:56:16;;;;;;;3.00;0.30;;;20.80;99.90;;;;;;5060112;28;20028;-76
2022/01/21 10:58:51;;;;;;;2.83;0.50;;;20.80;99.90;;;;;;5064630;28;20506;-75
2022/01/21 11:01:23;;;;;;;2.70;0.47;;;20.80;99.90;;;;;;5057331;28;20052;-75
2022/01/21 11:04:04;;;;;;;2.30;0.47;;;20.70;99.90;;;;;;5062045;28;20044;-75
2022/01/21 11:06:42;;;;;;;5.30;0.52;;;20.60;99.90;;;;;;5057040;28;20024;-75
2022/01/21 11:09:31;;;;;;;2.05;0.30;;;20.50;99.90;;;;;;5049432;28;20049;-75
2022/01/21 11:12:08;;;;;;;3.80;0.82;;;20.40;99.90;;;;;;5050313;28;21857;-75
2022/01/21 11:14:36;;;;;;;4.72;0.43;;;20.40;99.90;;;;;;5057714;28;20047;-75
2022/01/21 11:17:21;;;;;;;1.95;0.43;;;20.40;99.90;;;;;;5069421;28;20039;-75
2022/01/21 11:23:11;;;;;;;2.85;0.60;;;20.40;99.90;;;;;;5057347;28;20042;-76
2022/01/21 11:25:51;;;;;;;1.00;0.40;;;20.30;99.90;;;;;;5054001;28;20075;-77
2022/01/21 11:28:23;;;;;;;3.05;0.20;;;20.20;99.90;;;;;;5055932;28;20029;-76
2022/01/21 11:30:52;;;;;;;3.63;0.73;;;20.20;99.90;;;;;;5051570;28;20021;-77
2022/01/21 11:33:21;;;;;;;2.58;0.73;;;20.10;99.90;;;;;;5061677;28;20059;-77
2022/01/21 11:35:52;;;;;;;5.20;0.40;;;20.00;99.90;;;;;;5059924;28;20111;-76
2022/01/21 11:38:24;;;;;;;1.23;0.40;;;19.90;99.90;;;;;;5058705;28;20112;-76
2022/01/21 11:40:53;;;;;;;2.63;0.50;;;19.80;99.90;;;;;;5063719;28;20083;-74
2022/01/21 11:43:22;;;;;;;7.30;0.55;;;19.80;99.90;;;;;;5065869;28;20033;-75
2022/01/21 11:46:47;;;;;;;4.05;0.65;;;19.70;99.90;;;;;;5062412;28;20031;-75
2022/01/21 11:52:43;;;;;;;4.22;0.93;;;19.50;99.90;;;;;;5053184;28;20081;-74
2022/01/21 11:55:31;;;;;;;3.88;0.95;;;19.40;99.90;;;;;;5057911;28;20103;-76
2022/01/21 11:58:24;;;;;;;4.68;0.50;;;19.40;99.90;;;;;;5062542;28;20037;-76
2022/01/21 12:00:53;;;;;;;4.53;1.52;;;19.40;99.90;;;;;;5060542;28;20087;-73
2022/01/21 12:03:23;;;;;;;2.00;0.60;;;19.50;99.90;;;;;;5061803;28;20487;-75
2022/01/21 12:05:51;;;;;;;3.60;0.80;;;19.50;99.90;;;;;;5059815;28;20063;-76
2022/01/21 12:08:47;;;;;;;4.05;1.20;;;19.50;99.90;;;;;;5061942;28;20528;-76
2022/01/21 12:11:31;;;;;;;2.97;0.75;;;19.60;99.90;;;;;;5052825;28;20067;-76
2022/01/21 12:14:01;;;;;;;3.70;1.15;;;19.60;99.90;;;;;;5055501;28;20032;-75
2022/01/21 12:16:54;;;;;;;1.73;0.73;;;19.70;99.90;;;;;;5053658;28;20017;-75
2022/01/21 12:19:34;;;;;;;3.67;0.90;;;19.70;99.90;;;;;;5051970;28;20042;-76
2022/01/21 12:22:19;;;;;;;2.88;1.05;;;19.70;99.90;;;;;;5051640;28;20147;-76
2022/01/21 12:25:05;;;;;;;5.65;1.00;;;19.70;99.90;;;;;;5053270;28;20032;-77
2022/01/21 12:27:33;;;;;;;5.22;0.47;;;19.70;99.90;;;;;;5051589;28;20079;-76
2022/01/21 12:30:29;;;;;;;1.48;0.63;;;19.70;99.90;;;;;;5055429;28;20462;-76
2022/01/21 12:33:04;;;;;;;3.60;0.70;;;19.70;99.90;;;;;;5052190;28;20028;-75
2022/01/21 12:35:32;;;;;;;1.90;0.60;;;19.70;99.90;;;;;;5058438;28;20033;-75
2022/01/21 12:41:04;;;;;;;3.78;0.65;;;19.70;99.90;;;;;;5051537;28;20440;-75
2022/01/21 12:43:39;;;;;;;3.38;0.65;;;19.70;99.90;;;;;;5054617;28;20039;-76
2022/01/21 12:46:15;;;;;;;3.25;1.25;;;19.70;99.90;;;;;;5054274;28;20048;-76
2022/01/21 12:48:47;;;;;;;4.60;0.90;;;19.70;99.90;;;;;;5055491;28;20784;-76
2022/01/21 12:51:19;;;;;;;4.50;0.93;;;19.70;99.90;;;;;;5051011;28;20029;-76
2022/01/21 12:56:58;;;;;;;7.10;1.35;;;19.60;99.90;;;;;;5054725;28;20040;-75
2022/01/21 12:59:27;;;;;;;10.73;2.00;;;19.60;99.90;;;;;;5060872;28;20058;-75
2022/01/21 13:01:57;;;;;;;5.55;1.90;;;19.60;99.90;;;;;;5057503;28;20090;-75
2022/01/21 13:04:37;;;;;;;3.65;1.30;;;19.50;99.90;;;;;;5059667;28;20505;-76
2022/01/21 13:07:19;;;;;;;3.78;1.30;;;19.40;99.90;;;;;;5061237;28;20059;-79
2022/01/21 13:10:01;;;;;;;6.43;1.77;;;19.40;99.90;;;;;;5049026;28;20040;-78
2022/01/21 13:15:52;;;;;;;7.85;2.00;;;19.20;99.90;;;;;;5054253;28;20380;-75
2022/01/21 13:18:36;;;;;;;13.30;2.30;;;19.10;99.90;;;;;;5053963;28;20112;-74
2022/01/21 13:21:08;;;;;;;5.00;1.33;;;19.10;99.90;;;;;;5066437;28;20059;-75
2022/01/21 13:23:52;;;;;;;4.00;1.27;;;19.10;99.90;;;;;;5066412;28;20664;-74
2022/01/21 13:26:25;;;;;;;8.77;1.67;;;19.00;99.90;;;;;;5061513;28;22387;-74
2022/01/21 13:29:08;;;;;;;4.07;0.88;;;19.00;99.90;;;;;;5058716;28;20040;-73
2022/01/21 13:31:48;;;;;;;6.05;1.10;;;19.00;99.90;;;;;;5064623;28;20238;-74
2022/01/21 13:34:36;;;;;;;4.05;1.20;;;18.90;99.90;;;;;;5072548;28;20487;-75
2022/01/21 13:37:05;;;;;;;5.38;0.98;;;18.90;99.90;;;;;;5061072;28;20037;-75
2022/01/21 13:39:38;;;;;;;5.05;1.20;;;18.80;99.90;;;;;;5067282;28;20178;-75
2022/01/21 13:42:15;;;;;;;6.05;1.35;;;18.80;99.90;;;;;;5052856;28;20059;-75
2022/01/21 13:44:51;;;;;;;6.70;1.30;;;18.80;99.90;;;;;;5053129;28;20161;-75
2022/01/21 13:47:40;;;;;;;2.45;0.50;;;18.70;99.90;;;;;;5056438;28;20037;-74
2022/01/21 13:50:22;;;;;;;7.15;1.10;;;18.70;99.90;;;;;;5056109;28;20059;-75
2022/01/21 13:52:52;;;;;;;5.38;1.42;;;18.70;99.90;;;;;;5059817;28;20560;-75
2022/01/21 13:55:30;;;;;;;4.30;0.77;;;18.70;99.90;;;;;;5057024;28;20041;-75
2022/01/21 13:58:17;;;;;;;9.07;1.33;;;18.70;99.90;;;;;;5056164;28;20063;-75
2022/01/21 14:00:50;;;;;;;6.50;0.63;;;18.60;99.90;;;;;;5071643;28;20028;-76
2022/01/21 14:03:23;;;;;;;5.00;1.27;;;18.60;99.90;;;;;;5067660;28;20517;-77
2022/01/21 14:05:56;;;;;;;5.32;0.57;;;18.60;99.90;;;;;;5062093;28;20025;-76